sensor_id;sensor_type;location;lat;lon;timestamp;P1;durP1;ratioP1;P2;durP2;ratioP2
14554;SDS011;7364;50.870;4.722;2024-03-17T00:01:57;6.37;;;5.13;;
14554;SDS011;7364;50.870;4.722;2024-03-17T00:04:23;5.97;;;5.30;;
14554;SDS011;7364;50.870;4.722;2024-03-17T00:06:53;5.67;;;4.73;;
14554;SDS011;7364;50.870;4.722;2024-03-17T00:09:20;7.33;;;5.13;;
14554;SDS011;7364;50.870;4.722;2024-03-17T00:11:47;5.07;;;4.53;;
14554;SDS011;7364;50.870;4.722;2024-03-17T00:14:13;9.67;;;5.23;;
14554;SDS011;7364;50.870;4.722;2024-03-17T00:16:40;8.57;;;5.17;;
14554;SDS011;7364;50.870;4.722;2024-03-17T00:19:06;5.70;;;4.87;;
14554;SDS011;7364;50.870;4.722;2024-03-17T00:21:33;8.47;;;5.67;;
14554;SDS011;7364;50.870;4.722;2024-03-17T00:24:01;6.90;;;4.83;;
14554;SDS011;7364;50.870;4.722;2024-03-17T00:26:28;9.87;;;5.90;;
14554;SDS011;7364;50.870;4.722;2024-03-17T00:28:55;8.27;;;5.30;;
14554;SDS011;7364;50.870;4.722;2024-03-17T00:31:22;10.13;;;6.40;;
14554;SDS011;7364;50.870;4.722;2024-03-17T00:33:51;8.37;;;6.27;;
14554;SDS011;7364;50.870;4.722;2024-03-17T00:36:17;7.47;;;6.37;;
14554;SDS011;7364;50.870;4.722;2024-03-17T00:38:44;8.93;;;6.43;;
14554;SDS011;7364;50.870;4.722;2024-03-17T00:41:12;8.90;;;6.10;;
14554;SDS011;7364;50.870;4.722;2024-03-17T00:43:40;9.40;;;6.63;;
14554;SDS011;7364;50.870;4.722;2024-03-17T00:46:06;11.93;;;6.20;;
14554;SDS011;7364;50.870;4.722;2024-03-17T00:48:34;10.07;;;6.73;;
14554;SDS011;7364;50.870;4.722;2024-03-17T00:51:00;10.23;;;6.93;;
14554;SDS011;7364;50.870;4.722;2024-03-17T00:53:27;9.10;;;7.17;;
14554;SDS011;7364;50.870;4.722;2024-03-17T00:55:54;7.43;;;6.10;;
14554;SDS011;7364;50.870;4.722;2024-03-17T00:58:24;7.03;;;6.27;;
14554;SDS011;7364;50.870;4.722;2024-03-17T01:00:51;8.47;;;6.33;;
14554;SDS011;7364;50.870;4.722;2024-03-17T01:03:18;11.87;;;5.70;;
14554;SDS011;7364;50.870;4.722;2024-03-17T01:05:46;10.93;;;7.07;;
14554;SDS011;7364;50.870;4.722;2024-03-17T01:08:13;8.10;;;5.93;;
14554;SDS011;7364;50.870;4.722;2024-03-17T01:10:40;10.53;;;6.90;;
14554;SDS011;7364;50.870;4.722;2024-03-17T01:13:07;7.57;;;5.63;;
14554;SDS011;7364;50.870;4.722;2024-03-17T01:15:36;7.47;;;6.13;;
14554;SDS011;7364;50.870;4.722;2024-03-17T01:18:03;8.67;;;5.73;;
14554;SDS011;7364;50.870;4.722;2024-03-17T01:20:31;10.47;;;6.00;;
14554;SDS011;7364;50.870;4.722;2024-03-17T01:22:58;7.90;;;5.87;;
14554;SDS011;7364;50.870;4.722;2024-03-17T01:25:25;9.57;;;7.23;;
14554;SDS011;7364;50.870;4.722;2024-03-17T01:27:52;9.67;;;6.00;;
14554;SDS011;7364;50.870;4.722;2024-03-17T01:30:20;10.47;;;5.43;;
14554;SDS011;7364;50.870;4.722;2024-03-17T01:32:47;7.93;;;5.40;;
14554;SDS011;7364;50.870;4.722;2024-03-17T01:35:15;7.33;;;5.60;;
14554;SDS011;7364;50.870;4.722;2024-03-17T01:37:41;6.53;;;5.60;;
14554;SDS011;7364;50.870;4.722;2024-03-17T01:40:09;7.37;;;5.23;;
14554;SDS011;7364;50.870;4.722;2024-03-17T01:42:36;9.03;;;5.50;;
14554;SDS011;7364;50.870;4.722;2024-03-17T01:45:14;6.90;;;5.17;;
14554;SDS011;7364;50.870;4.722;2024-03-17T01:47:53;6.63;;;4.93;;
14554;SDS011;7364;50.870;4.722;2024-03-17T01:50:23;8.47;;;5.20;;
14554;SDS011;7364;50.870;4.722;2024-03-17T01:52:51;7.00;;;4.50;;
14554;SDS011;7364;50.870;4.722;2024-03-17T01:55:20;8.33;;;5.00;;
14554;SDS011;7364;50.870;4.722;2024-03-17T01:57:47;8.20;;;5.10;;
14554;SDS011;7364;50.870;4.722;2024-03-17T02:00:15;6.73;;;5.00;;
14554;SDS011;7364;50.870;4.722;2024-03-17T02:02:42;6.83;;;4.93;;
14554;SDS011;7364;50.870;4.722;2024-03-17T02:05:10;5.10;;;4.60;;
14554;SDS011;7364;50.870;4.722;2024-03-17T02:07:36;6.93;;;4.93;;
14554;SDS011;7364;50.870;4.722;2024-03-17T02:10:04;7.33;;;4.47;;
14554;SDS011;7364;50.870;4.722;2024-03-17T02:12:31;6.63;;;4.83;;
14554;SDS011;7364;50.870;4.722;2024-03-17T02:14:58;5.33;;;4.83;;
14554;SDS011;7364;50.870;4.722;2024-03-17T02:17:24;5.83;;;4.83;;
14554;SDS011;7364;50.870;4.722;2024-03-17T02:19:52;8.87;;;5.60;;
14554;SDS011;7364;50.870;4.722;2024-03-17T02:22:20;9.00;;;5.17;;
14554;SDS011;7364;50.870;4.722;2024-03-17T02:24:47;8.00;;;5.40;;
14554;SDS011;7364;50.870;4.722;2024-03-17T02:27:13;9.77;;;5.97;;
14554;SDS011;7364;50.870;4.722;2024-03-17T02:29:41;5.90;;;5.03;;
14554;SDS011;7364;50.870;4.722;2024-03-17T02:32:07;7.63;;;5.30;;
14554;SDS011;7364;50.870;4.722;2024-03-17T02:34:37;7.73;;;5.20;;
14554;SDS011;7364;50.870;4.722;2024-03-17T02:37:04;8.27;;;5.63;;
14554;SDS011;7364;50.870;4.722;2024-03-17T02:39:33;7.43;;;5.40;;
14554;SDS011;7364;50.870;4.722;2024-03-17T02:42:01;6.17;;;5.57;;
14554;SDS011;7364;50.870;4.722;2024-03-17T02:44:30;9.17;;;6.10;;
14554;SDS011;7364;50.870;4.722;2024-03-17T02:46:57;8.53;;;6.03;;
14554;SDS011;7364;50.870;4.722;2024-03-17T02:49:25;8.80;;;6.47;;
14554;SDS011;7364;50.870;4.722;2024-03-17T02:51:53;7.47;;;5.80;;
14554;SDS011;7364;50.870;4.722;2024-03-17T02:54:20;9.90;;;6.37;;
14554;SDS011;7364;50.870;4.722;2024-03-17T02:56:49;12.30;;;6.83;;
14554;SDS011;7364;50.870;4.722;2024-03-17T02:59:16;10.40;;;7.10;;
14554;SDS011;7364;50.870;4.722;2024-03-17T03:01:43;15.23;;;7.13;;
14554;SDS011;7364;50.870;4.722;2024-03-17T03:04:11;10.70;;;7.00;;
14554;SDS011;7364;50.870;4.722;2024-03-17T03:06:39;9.93;;;7.20;;
14554;SDS011;7364;50.870;4.722;2024-03-17T03:09:06;11.30;;;6.17;;
14554;SDS011;7364;50.870;4.722;2024-03-17T03:11:39;8.27;;;6.43;;
14554;SDS011;7364;50.870;4.722;2024-03-17T03:14:09;7.00;;;5.47;;
14554;SDS011;7364;50.870;4.722;2024-03-17T03:16:37;8.90;;;6.90;;
14554;SDS011;7364;50.870;4.722;2024-03-17T03:19:04;10.63;;;6.57;;
14554;SDS011;7364;50.870;4.722;2024-03-17T03:21:31;7.40;;;6.20;;
14554;SDS011;7364;50.870;4.722;2024-03-17T03:23:57;9.37;;;7.17;;
14554;SDS011;7364;50.870;4.722;2024-03-17T03:26:24;7.60;;;6.50;;
14554;SDS011;7364;50.870;4.722;2024-03-17T03:28:52;7.20;;;6.00;;
14554;SDS011;7364;50.870;4.722;2024-03-17T03:31:21;9.67;;;6.40;;
14554;SDS011;7364;50.870;4.722;2024-03-17T03:33:49;10.00;;;5.90;;
14554;SDS011;7364;50.870;4.722;2024-03-17T03:36:16;8.93;;;6.03;;
14554;SDS011;7364;50.870;4.722;2024-03-17T03:38:43;11.50;;;6.40;;
14554;SDS011;7364;50.870;4.722;2024-03-17T03:41:14;8.37;;;6.47;;
14554;SDS011;7364;50.870;4.722;2024-03-17T03:43:42;6.90;;;5.90;;
14554;SDS011;7364;50.870;4.722;2024-03-17T03:46:11;8.27;;;6.53;;
14554;SDS011;7364;50.870;4.722;2024-03-17T03:48:40;7.43;;;5.97;;
14554;SDS011;7364;50.870;4.722;2024-03-17T03:51:08;7.03;;;5.77;;
14554;SDS011;7364;50.870;4.722;2024-03-17T03:53:36;9.97;;;6.60;;
14554;SDS011;7364;50.870;4.722;2024-03-17T03:56:04;8.73;;;6.70;;
14554;SDS011;7364;50.870;4.722;2024-03-17T03:58:32;9.17;;;6.17;;
14554;SDS011;7364;50.870;4.722;2024-03-17T04:01:00;8.33;;;6.33;;
14554;SDS011;7364;50.870;4.722;2024-03-17T04:03:30;7.70;;;6.80;;
14554;SDS011;7364;50.870;4.722;2024-03-17T04:06:04;9.83;;;6.63;;
14554;SDS011;7364;50.870;4.722;2024-03-17T04:08:32;9.73;;;6.73;;
14554;SDS011;7364;50.870;4.722;2024-03-17T04:11:00;8.47;;;6.43;;
14554;SDS011;7364;50.870;4.722;2024-03-17T04:13:27;10.77;;;7.53;;
14554;SDS011;7364;50.870;4.722;2024-03-17T04:15:56;10.47;;;6.97;;
14554;SDS011;7364;50.870;4.722;2024-03-17T04:18:24;8.17;;;6.30;;
14554;SDS011;7364;50.870;4.722;2024-03-17T04:20:52;9.27;;;6.00;;
14554;SDS011;7364;50.870;4.722;2024-03-17T04:23:21;8.37;;;6.43;;
14554;SDS011;7364;50.870;4.722;2024-03-17T04:25:51;8.43;;;6.37;;
14554;SDS011;7364;50.870;4.722;2024-03-17T04:28:19;10.23;;;6.53;;
14554;SDS011;7364;50.870;4.722;2024-03-17T04:30:47;12.07;;;7.37;;
14554;SDS011;7364;50.870;4.722;2024-03-17T04:33:14;6.90;;;6.10;;
14554;SDS011;7364;50.870;4.722;2024-03-17T04:35:41;8.67;;;6.30;;
14554;SDS011;7364;50.870;4.722;2024-03-17T04:38:09;10.20;;;6.07;;
14554;SDS011;7364;50.870;4.722;2024-03-17T04:40:41;7.07;;;6.37;;
14554;SDS011;7364;50.870;4.722;2024-03-17T04:43:08;14.00;;;6.73;;
14554;SDS011;7364;50.870;4.722;2024-03-17T04:45:36;14.97;;;6.53;;
14554;SDS011;7364;50.870;4.722;2024-03-17T04:48:03;7.50;;;6.17;;
14554;SDS011;7364;50.870;4.722;2024-03-17T04:50:32;8.43;;;6.63;;
14554;SDS011;7364;50.870;4.722;2024-03-17T04:52:59;9.40;;;6.40;;
14554;SDS011;7364;50.870;4.722;2024-03-17T04:55:27;8.80;;;5.90;;
14554;SDS011;7364;50.870;4.722;2024-03-17T04:57:55;9.70;;;7.37;;
14554;SDS011;7364;50.870;4.722;2024-03-17T05:00:22;9.10;;;6.03;;
14554;SDS011;7364;50.870;4.722;2024-03-17T05:02:50;10.20;;;6.77;;
14554;SDS011;7364;50.870;4.722;2024-03-17T05:05:19;8.03;;;6.50;;
14554;SDS011;7364;50.870;4.722;2024-03-17T05:07:46;8.70;;;6.60;;
14554;SDS011;7364;50.870;4.722;2024-03-17T05:10:13;8.87;;;5.93;;
14554;SDS011;7364;50.870;4.722;2024-03-17T05:12:41;6.23;;;5.63;;
14554;SDS011;7364;50.870;4.722;2024-03-17T05:15:10;11.37;;;7.17;;
14554;SDS011;7364;50.870;4.722;2024-03-17T05:17:37;14.17;;;6.40;;
14554;SDS011;7364;50.870;4.722;2024-03-17T05:20:05;7.63;;;6.07;;
14554;SDS011;7364;50.870;4.722;2024-03-17T05:22:33;9.73;;;6.27;;
14554;SDS011;7364;50.870;4.722;2024-03-17T05:25:01;8.87;;;5.70;;
14554;SDS011;7364;50.870;4.722;2024-03-17T05:27:28;8.87;;;5.87;;
14554;SDS011;7364;50.870;4.722;2024-03-17T05:29:56;11.80;;;6.10;;
14554;SDS011;7364;50.870;4.722;2024-03-17T05:32:24;8.33;;;6.33;;
14554;SDS011;7364;50.870;4.722;2024-03-17T05:34:52;9.17;;;6.30;;
14554;SDS011;7364;50.870;4.722;2024-03-17T05:37:19;6.57;;;5.53;;
14554;SDS011;7364;50.870;4.722;2024-03-17T05:39:46;13.10;;;6.77;;
14554;SDS011;7364;50.870;4.722;2024-03-17T05:42:14;9.93;;;6.50;;
14554;SDS011;7364;50.870;4.722;2024-03-17T05:44:41;11.13;;;6.77;;
14554;SDS011;7364;50.870;4.722;2024-03-17T05:47:18;8.37;;;6.53;;
14554;SDS011;7364;50.870;4.722;2024-03-17T05:49:47;8.43;;;6.37;;
14554;SDS011;7364;50.870;4.722;2024-03-17T05:52:14;9.53;;;6.90;;
14554;SDS011;7364;50.870;4.722;2024-03-17T05:54:41;10.40;;;7.37;;
14554;SDS011;7364;50.870;4.722;2024-03-17T05:57:09;8.40;;;6.37;;
14554;SDS011;7364;50.870;4.722;2024-03-17T05:59:39;12.03;;;7.70;;
14554;SDS011;7364;50.870;4.722;2024-03-17T06:02:07;8.87;;;6.37;;
14554;SDS011;7364;50.870;4.722;2024-03-17T06:04:35;9.00;;;6.67;;
14554;SDS011;7364;50.870;4.722;2024-03-17T06:07:05;7.87;;;6.20;;
14554;SDS011;7364;50.870;4.722;2024-03-17T06:09:32;9.77;;;7.17;;
14554;SDS011;7364;50.870;4.722;2024-03-17T06:12:00;8.90;;;7.03;;
14554;SDS011;7364;50.870;4.722;2024-03-17T06:14:27;8.53;;;6.13;;
14554;SDS011;7364;50.870;4.722;2024-03-17T06:16:55;10.17;;;7.27;;
14554;SDS011;7364;50.870;4.722;2024-03-17T06:19:22;11.53;;;6.67;;
14554;SDS011;7364;50.870;4.722;2024-03-17T06:21:49;7.87;;;5.97;;
14554;SDS011;7364;50.870;4.722;2024-03-17T06:24:18;14.67;;;7.73;;
14554;SDS011;7364;50.870;4.722;2024-03-17T06:26:45;10.50;;;7.83;;
14554;SDS011;7364;50.870;4.722;2024-03-17T06:29:14;12.40;;;6.57;;
14554;SDS011;7364;50.870;4.722;2024-03-17T06:31:41;8.37;;;5.80;;
14554;SDS011;7364;50.870;4.722;2024-03-17T06:34:10;10.53;;;6.97;;
14554;SDS011;7364;50.870;4.722;2024-03-17T06:36:40;7.90;;;5.83;;
14554;SDS011;7364;50.870;4.722;2024-03-17T06:39:07;8.00;;;6.20;;
14554;SDS011;7364;50.870;4.722;2024-03-17T06:41:36;9.40;;;7.03;;
14554;SDS011;7364;50.870;4.722;2024-03-17T06:44:03;8.83;;;7.07;;
14554;SDS011;7364;50.870;4.722;2024-03-17T06:46:32;9.30;;;5.97;;
14554;SDS011;7364;50.870;4.722;2024-03-17T06:49:00;7.40;;;5.97;;
14554;SDS011;7364;50.870;4.722;2024-03-17T06:51:27;10.20;;;6.73;;
14554;SDS011;7364;50.870;4.722;2024-03-17T06:53:54;7.50;;;6.00;;
14554;SDS011;7364;50.870;4.722;2024-03-17T06:56:22;12.23;;;5.93;;
14554;SDS011;7364;50.870;4.722;2024-03-17T06:58:50;9.07;;;6.80;;
14554;SDS011;7364;50.870;4.722;2024-03-17T07:01:18;8.80;;;5.97;;
14554;SDS011;7364;50.870;4.722;2024-03-17T07:03:46;8.47;;;5.70;;
14554;SDS011;7364;50.870;4.722;2024-03-17T07:06:14;11.60;;;6.37;;
14554;SDS011;7364;50.870;4.722;2024-03-17T07:08:41;8.53;;;5.90;;
14554;SDS011;7364;50.870;4.722;2024-03-17T07:11:08;7.43;;;5.87;;
14554;SDS011;7364;50.870;4.722;2024-03-17T07:13:36;7.93;;;6.37;;
14554;SDS011;7364;50.870;4.722;2024-03-17T07:16:08;9.40;;;6.10;;
14554;SDS011;7364;50.870;4.722;2024-03-17T07:18:35;8.80;;;6.07;;
14554;SDS011;7364;50.870;4.722;2024-03-17T07:21:03;11.33;;;6.00;;
14554;SDS011;7364;50.870;4.722;2024-03-17T07:23:31;9.67;;;6.03;;
14554;SDS011;7364;50.870;4.722;2024-03-17T07:25:59;9.63;;;5.90;;
14554;SDS011;7364;50.870;4.722;2024-03-17T07:28:27;8.50;;;5.33;;
14554;SDS011;7364;50.870;4.722;2024-03-17T07:30:55;7.70;;;5.10;;
14554;SDS011;7364;50.870;4.722;2024-03-17T07:33:25;11.23;;;6.10;;
14554;SDS011;7364;50.870;4.722;2024-03-17T07:35:52;9.00;;;6.03;;
14554;SDS011;7364;50.870;4.722;2024-03-17T07:38:22;8.70;;;6.20;;
14554;SDS011;7364;50.870;4.722;2024-03-17T07:40:57;7.40;;;5.70;;
14554;SDS011;7364;50.870;4.722;2024-03-17T07:43:26;6.20;;;5.03;;
14554;SDS011;7364;50.870;4.722;2024-03-17T07:45:57;7.57;;;5.67;;
14554;SDS011;7364;50.870;4.722;2024-03-17T07:48:27;7.73;;;5.67;;
14554;SDS011;7364;50.870;4.722;2024-03-17T07:50:55;8.40;;;5.40;;
14554;SDS011;7364;50.870;4.722;2024-03-17T07:53:23;9.53;;;5.37;;
14554;SDS011;7364;50.870;4.722;2024-03-17T07:55:58;5.93;;;4.97;;
14554;SDS011;7364;50.870;4.722;2024-03-17T07:58:26;7.43;;;5.53;;
14554;SDS011;7364;50.870;4.722;2024-03-17T08:00:56;11.13;;;6.57;;
14554;SDS011;7364;50.870;4.722;2024-03-17T08:03:27;7.70;;;5.73;;
14554;SDS011;7364;50.870;4.722;2024-03-17T08:05:55;8.50;;;6.00;;
14554;SDS011;7364;50.870;4.722;2024-03-17T08:08:22;6.10;;;4.63;;
14554;SDS011;7364;50.870;4.722;2024-03-17T08:10:50;9.87;;;5.47;;
14554;SDS011;7364;50.870;4.722;2024-03-17T08:13:17;12.87;;;5.37;;
14554;SDS011;7364;50.870;4.722;2024-03-17T08:15:45;7.90;;;5.27;;
14554;SDS011;7364;50.870;4.722;2024-03-17T08:18:13;7.53;;;5.27;;
14554;SDS011;7364;50.870;4.722;2024-03-17T08:20:42;6.20;;;5.10;;
14554;SDS011;7364;50.870;4.722;2024-03-17T08:23:11;6.87;;;5.10;;
14554;SDS011;7364;50.870;4.722;2024-03-17T08:25:39;6.30;;;4.37;;
14554;SDS011;7364;50.870;4.722;2024-03-17T08:28:06;6.80;;;4.20;;
14554;SDS011;7364;50.870;4.722;2024-03-17T08:30:33;6.50;;;4.03;;
14554;SDS011;7364;50.870;4.722;2024-03-17T08:33:01;7.73;;;4.40;;
14554;SDS011;7364;50.870;4.722;2024-03-17T08:35:28;6.57;;;4.33;;
14554;SDS011;7364;50.870;4.722;2024-03-17T08:37:56;6.53;;;3.30;;
14554;SDS011;7364;50.870;4.722;2024-03-17T08:40:25;5.63;;;3.50;;
14554;SDS011;7364;50.870;4.722;2024-03-17T08:42:52;5.07;;;3.93;;
14554;SDS011;7364;50.870;4.722;2024-03-17T08:45:19;7.03;;;4.10;;
14554;SDS011;7364;50.870;4.722;2024-03-17T08:47:50;6.73;;;3.67;;
14554;SDS011;7364;50.870;4.722;2024-03-17T08:50:18;6.13;;;3.53;;
14554;SDS011;7364;50.870;4.722;2024-03-17T08:52:45;6.07;;;4.10;;
14554;SDS011;7364;50.870;4.722;2024-03-17T08:55:14;6.17;;;3.67;;
14554;SDS011;7364;50.870;4.722;2024-03-17T08:57:41;5.93;;;3.20;;
14554;SDS011;7364;50.870;4.722;2024-03-17T09:00:12;4.23;;;3.40;;
14554;SDS011;7364;50.870;4.722;2024-03-17T09:02:40;5.23;;;2.93;;
14554;SDS011;7364;50.870;4.722;2024-03-17T09:05:07;4.63;;;2.87;;
14554;SDS011;7364;50.870;4.722;2024-03-17T09:07:33;5.67;;;3.10;;
14554;SDS011;7364;50.870;4.722;2024-03-17T09:10:01;8.60;;;2.83;;
14554;SDS011;7364;50.870;4.722;2024-03-17T09:12:29;5.13;;;3.20;;
14554;SDS011;7364;50.870;4.722;2024-03-17T09:14:57;4.57;;;3.10;;
14554;SDS011;7364;50.870;4.722;2024-03-17T09:17:24;8.37;;;3.83;;
14554;SDS011;7364;50.870;4.722;2024-03-17T09:19:51;3.73;;;2.83;;
14554;SDS011;7364;50.870;4.722;2024-03-17T09:22:19;8.97;;;2.67;;
14554;SDS011;7364;50.870;4.722;2024-03-17T09:24:46;4.07;;;2.90;;
14554;SDS011;7364;50.870;4.722;2024-03-17T09:27:13;5.90;;;2.93;;
14554;SDS011;7364;50.870;4.722;2024-03-17T09:29:46;5.40;;;3.50;;
14554;SDS011;7364;50.870;4.722;2024-03-17T09:32:16;5.17;;;3.23;;
14554;SDS011;7364;50.870;4.722;2024-03-17T09:34:46;6.93;;;3.37;;
14554;SDS011;7364;50.870;4.722;2024-03-17T09:37:14;3.83;;;3.07;;
14554;SDS011;7364;50.870;4.722;2024-03-17T09:39:42;4.77;;;3.13;;
14554;SDS011;7364;50.870;4.722;2024-03-17T09:42:12;7.17;;;3.40;;
14554;SDS011;7364;50.870;4.722;2024-03-17T09:44:43;4.33;;;3.00;;
14554;SDS011;7364;50.870;4.722;2024-03-17T09:47:16;3.53;;;2.67;;
14554;SDS011;7364;50.870;4.722;2024-03-17T09:49:46;7.17;;;2.70;;
14554;SDS011;7364;50.870;4.722;2024-03-17T09:52:15;6.93;;;2.87;;
14554;SDS011;7364;50.870;4.722;2024-03-17T09:54:48;3.40;;;2.80;;
14554;SDS011;7364;50.870;4.722;2024-03-17T09:57:21;4.03;;;2.50;;
14554;SDS011;7364;50.870;4.722;2024-03-17T09:59:53;3.57;;;2.80;;
14554;SDS011;7364;50.870;4.722;2024-03-17T10:02:20;2.77;;;2.00;;
14554;SDS011;7364;50.870;4.722;2024-03-17T10:04:48;3.20;;;2.33;;
14554;SDS011;7364;50.870;4.722;2024-03-17T10:07:16;5.13;;;2.33;;
14554;SDS011;7364;50.870;4.722;2024-03-17T10:09:43;3.43;;;2.40;;
14554;SDS011;7364;50.870;4.722;2024-03-17T10:15:01;4.90;;;2.80;;
14554;SDS011;7364;50.870;4.722;2024-03-17T10:17:30;5.27;;;2.63;;
14554;SDS011;7364;50.870;4.722;2024-03-17T10:20:11;6.20;;;2.30;;
14554;SDS011;7364;50.870;4.722;2024-03-17T10:22:41;4.37;;;2.83;;
14554;SDS011;7364;50.870;4.722;2024-03-17T10:25:23;3.13;;;2.53;;
14554;SDS011;7364;50.870;4.722;2024-03-17T10:27:50;5.60;;;2.67;;
14554;SDS011;7364;50.870;4.722;2024-03-17T10:30:20;5.93;;;2.20;;
14554;SDS011;7364;50.870;4.722;2024-03-17T10:32:52;3.57;;;2.53;;
14554;SDS011;7364;50.870;4.722;2024-03-17T10:35:27;3.90;;;1.97;;
14554;SDS011;7364;50.870;4.722;2024-03-17T10:37:56;3.80;;;2.67;;
14554;SDS011;7364;50.870;4.722;2024-03-17T10:40:24;5.50;;;2.70;;
14554;SDS011;7364;50.870;4.722;2024-03-17T10:42:53;4.70;;;2.13;;
14554;SDS011;7364;50.870;4.722;2024-03-17T10:45:22;3.83;;;2.43;;
14554;SDS011;7364;50.870;4.722;2024-03-17T10:47:51;4.27;;;2.20;;
14554;SDS011;7364;50.870;4.722;2024-03-17T10:50:20;4.60;;;2.80;;
14554;SDS011;7364;50.870;4.722;2024-03-17T10:52:49;4.20;;;3.00;;
14554;SDS011;7364;50.870;4.722;2024-03-17T10:55:20;11.70;;;7.77;;
14554;SDS011;7364;50.870;4.722;2024-03-17T10:57:49;7.90;;;4.90;;
14554;SDS011;7364;50.870;4.722;2024-03-17T11:00:18;16.57;;;8.00;;
14554;SDS011;7364;50.870;4.722;2024-03-17T11:02:49;36.87;;;27.40;;
14554;SDS011;7364;50.870;4.722;2024-03-17T11:05:18;5.50;;;3.57;;
14554;SDS011;7364;50.870;4.722;2024-03-17T11:07:51;9.70;;;7.73;;
14554;SDS011;7364;50.870;4.722;2024-03-17T11:10:23;10.13;;;6.03;;
14554;SDS011;7364;50.870;4.722;2024-03-17T11:12:53;5.37;;;2.40;;
14554;SDS011;7364;50.870;4.722;2024-03-17T11:15:34;3.53;;;2.33;;
14554;SDS011;7364;50.870;4.722;2024-03-17T11:21:03;5.30;;;2.53;;
14554;SDS011;7364;50.870;4.722;2024-03-17T11:23:54;4.93;;;2.27;;
14554;SDS011;7364;50.870;4.722;2024-03-17T11:26:26;3.67;;;2.10;;
14554;SDS011;7364;50.870;4.722;2024-03-17T11:28:55;3.47;;;2.03;;
14554;SDS011;7364;50.870;4.722;2024-03-17T11:31:40;3.23;;;1.97;;
14554;SDS011;7364;50.870;4.722;2024-03-17T11:36:54;2.80;;;1.70;;
14554;SDS011;7364;50.870;4.722;2024-03-17T11:42:23;3.40;;;2.13;;
14554;SDS011;7364;50.870;4.722;2024-03-17T11:44:58;3.53;;;2.10;;
14554;SDS011;7364;50.870;4.722;2024-03-17T11:47:35;5.80;;;1.90;;
14554;SDS011;7364;50.870;4.722;2024-03-17T11:50:06;4.13;;;2.13;;
14554;SDS011;7364;50.870;4.722;2024-03-17T11:52:37;3.67;;;1.87;;
14554;SDS011;7364;50.870;4.722;2024-03-17T11:55:18;9.13;;;2.17;;
14554;SDS011;7364;50.870;4.722;2024-03-17T11:57:44;3.97;;;2.20;;
14554;SDS011;7364;50.870;4.722;2024-03-17T12:00:18;3.87;;;2.10;;
14554;SDS011;7364;50.870;4.722;2024-03-17T12:02:47;4.43;;;2.03;;
14554;SDS011;7364;50.870;4.722;2024-03-17T12:05:16;5.23;;;2.40;;
14554;SDS011;7364;50.870;4.722;2024-03-17T12:07:43;5.20;;;2.00;;
14554;SDS011;7364;50.870;4.722;2024-03-17T12:10:11;2.83;;;1.90;;
14554;SDS011;7364;50.870;4.722;2024-03-17T12:12:39;4.57;;;2.20;;
14554;SDS011;7364;50.870;4.722;2024-03-17T12:15:15;4.33;;;2.20;;
14554;SDS011;7364;50.870;4.722;2024-03-17T12:17:43;4.43;;;2.43;;
14554;SDS011;7364;50.870;4.722;2024-03-17T12:20:20;5.87;;;2.33;;
14554;SDS011;7364;50.870;4.722;2024-03-17T12:22:47;7.20;;;2.50;;
14554;SDS011;7364;50.870;4.722;2024-03-17T12:25:17;6.27;;;2.53;;
14554;SDS011;7364;50.870;4.722;2024-03-17T12:27:45;3.93;;;2.50;;
14554;SDS011;7364;50.870;4.722;2024-03-17T12:30:13;5.70;;;2.40;;
14554;SDS011;7364;50.870;4.722;2024-03-17T12:32:40;5.13;;;2.30;;
14554;SDS011;7364;50.870;4.722;2024-03-17T12:35:12;4.90;;;2.00;;
14554;SDS011;7364;50.870;4.722;2024-03-17T12:37:42;5.47;;;2.20;;
14554;SDS011;7364;50.870;4.722;2024-03-17T12:40:20;4.80;;;2.20;;
14554;SDS011;7364;50.870;4.722;2024-03-17T12:42:47;4.60;;;2.00;;
14554;SDS011;7364;50.870;4.722;2024-03-17T12:45:19;6.27;;;2.10;;
14554;SDS011;7364;50.870;4.722;2024-03-17T12:47:46;4.87;;;2.10;;
14554;SDS011;7364;50.870;4.722;2024-03-17T12:50:14;5.60;;;2.50;;
14554;SDS011;7364;50.870;4.722;2024-03-17T12:52:46;6.33;;;1.97;;
14554;SDS011;7364;50.870;4.722;2024-03-17T12:55:19;2.60;;;1.67;;
14554;SDS011;7364;50.870;4.722;2024-03-17T12:58:07;2.73;;;1.77;;
14554;SDS011;7364;50.870;4.722;2024-03-17T13:01:07;6.77;;;2.27;;
14554;SDS011;7364;50.870;4.722;2024-03-17T13:03:35;3.07;;;1.67;;
14554;SDS011;7364;50.870;4.722;2024-03-17T13:06:05;3.47;;;1.97;;
14554;SDS011;7364;50.870;4.722;2024-03-17T13:08:36;5.87;;;2.07;;
14554;SDS011;7364;50.870;4.722;2024-03-17T13:11:06;5.67;;;2.43;;
14554;SDS011;7364;50.870;4.722;2024-03-17T13:13:35;4.87;;;2.70;;
14554;SDS011;7364;50.870;4.722;2024-03-17T13:16:03;7.70;;;2.60;;
14554;SDS011;7364;50.870;4.722;2024-03-17T13:18:31;3.67;;;2.20;;
14554;SDS011;7364;50.870;4.722;2024-03-17T13:20:58;2.97;;;1.73;;
14554;SDS011;7364;50.870;4.722;2024-03-17T13:23:26;3.60;;;1.80;;
14554;SDS011;7364;50.870;4.722;2024-03-17T13:25:56;2.17;;;1.60;;
14554;SDS011;7364;50.870;4.722;2024-03-17T13:28:23;3.27;;;2.30;;
14554;SDS011;7364;50.870;4.722;2024-03-17T13:30:50;3.27;;;1.77;;
14554;SDS011;7364;50.870;4.722;2024-03-17T13:33:18;5.40;;;2.10;;
14554;SDS011;7364;50.870;4.722;2024-03-17T13:35:45;4.87;;;2.13;;
14554;SDS011;7364;50.870;4.722;2024-03-17T13:38:12;2.60;;;1.50;;
14554;SDS011;7364;50.870;4.722;2024-03-17T13:40:40;4.37;;;1.93;;
14554;SDS011;7364;50.870;4.722;2024-03-17T13:43:09;4.20;;;1.63;;
14554;SDS011;7364;50.870;4.722;2024-03-17T13:45:38;3.03;;;1.43;;
14554;SDS011;7364;50.870;4.722;2024-03-17T13:48:06;3.80;;;1.83;;
14554;SDS011;7364;50.870;4.722;2024-03-17T13:50:35;2.60;;;1.70;;
14554;SDS011;7364;50.870;4.722;2024-03-17T13:53:03;3.63;;;1.60;;
14554;SDS011;7364;50.870;4.722;2024-03-17T13:55:30;4.13;;;2.03;;
14554;SDS011;7364;50.870;4.722;2024-03-17T13:57:58;3.40;;;1.83;;
14554;SDS011;7364;50.870;4.722;2024-03-17T14:00:27;6.13;;;1.90;;
14554;SDS011;7364;50.870;4.722;2024-03-17T14:02:59;2.60;;;1.87;;
14554;SDS011;7364;50.870;4.722;2024-03-17T14:05:26;6.40;;;1.60;;
14554;SDS011;7364;50.870;4.722;2024-03-17T14:07:54;4.37;;;2.07;;
14554;SDS011;7364;50.870;4.722;2024-03-17T14:10:23;1.87;;;1.13;;
14554;SDS011;7364;50.870;4.722;2024-03-17T14:12:51;2.67;;;1.33;;
14554;SDS011;7364;50.870;4.722;2024-03-17T14:15:19;4.53;;;1.40;;
14554;SDS011;7364;50.870;4.722;2024-03-17T14:17:48;3.00;;;1.70;;
14554;SDS011;7364;50.870;4.722;2024-03-17T14:20:15;1.33;;;1.10;;
14554;SDS011;7364;50.870;4.722;2024-03-17T14:22:45;3.87;;;1.40;;
14554;SDS011;7364;50.870;4.722;2024-03-17T14:25:18;3.03;;;1.67;;
14554;SDS011;7364;50.870;4.722;2024-03-17T14:27:46;3.43;;;1.30;;
14554;SDS011;7364;50.870;4.722;2024-03-17T14:30:15;1.93;;;1.27;;
14554;SDS011;7364;50.870;4.722;2024-03-17T14:32:43;3.70;;;1.67;;
14554;SDS011;7364;50.870;4.722;2024-03-17T14:35:12;9.90;;;1.63;;
14554;SDS011;7364;50.870;4.722;2024-03-17T14:37:41;2.63;;;1.60;;
14554;SDS011;7364;50.870;4.722;2024-03-17T14:40:13;3.17;;;1.20;;
14554;SDS011;7364;50.870;4.722;2024-03-17T14:42:45;1.80;;;1.10;;
14554;SDS011;7364;50.870;4.722;2024-03-17T14:45:13;5.67;;;1.47;;
14554;SDS011;7364;50.870;4.722;2024-03-17T14:47:40;3.00;;;1.63;;
14554;SDS011;7364;50.870;4.722;2024-03-17T14:50:08;2.13;;;1.17;;
14554;SDS011;7364;50.870;4.722;2024-03-17T14:52:39;4.50;;;1.33;;
14554;SDS011;7364;50.870;4.722;2024-03-17T14:55:07;1.97;;;1.10;;
14554;SDS011;7364;50.870;4.722;2024-03-17T14:57:36;2.37;;;1.40;;
14554;SDS011;7364;50.870;4.722;2024-03-17T15:00:04;4.67;;;1.77;;
14554;SDS011;7364;50.870;4.722;2024-03-17T15:02:41;4.43;;;1.53;;
14554;SDS011;7364;50.870;4.722;2024-03-17T15:05:08;2.53;;;1.60;;
14554;SDS011;7364;50.870;4.722;2024-03-17T15:07:36;3.40;;;1.83;;
14554;SDS011;7364;50.870;4.722;2024-03-17T15:10:05;2.17;;;1.53;;
14554;SDS011;7364;50.870;4.722;2024-03-17T15:12:33;3.80;;;1.73;;
14554;SDS011;7364;50.870;4.722;2024-03-17T15:15:01;6.07;;;2.20;;
14554;SDS011;7364;50.870;4.722;2024-03-17T15:17:28;3.00;;;1.30;;
14554;SDS011;7364;50.870;4.722;2024-03-17T15:19:55;4.57;;;1.70;;
14554;SDS011;7364;50.870;4.722;2024-03-17T15:22:22;2.50;;;1.50;;